createdAt,value
2023-02-17T00:01:30.996Z,98504.34
2023-02-17T00:04:01.350Z,98506.03
2023-02-17T00:06:31.770Z,98506.78
2023-02-17T00:09:01.888Z,98511.09
2023-02-17T00:11:30.530Z,98504.09
2023-02-17T00:14:00.242Z,98501.47
2023-02-17T00:16:30.037Z,98489.81
2023-02-17T00:19:02.360Z,98482.78
2023-02-17T00:21:33.168Z,98483.53
2023-02-17T00:24:01.830Z,98475.66
2023-02-17T00:26:30.433Z,98472.09
2023-02-17T00:29:00.188Z,98478.19
2023-02-17T00:31:28.583Z,98488.59
2023-02-17T00:33:57.805Z,98486.94
2023-02-17T00:36:28.166Z,98492.19
2023-02-17T00:38:58.652Z,98493.00
2023-02-17T00:41:28.824Z,98495.53
2023-02-17T00:43:57.416Z,98496.31
2023-02-17T00:46:27.176Z,98497.06
2023-02-17T00:48:55.799Z,98494.25
2023-02-17T00:51:26.195Z,98493.31
2023-02-17T00:53:54.421Z,98499.53
2023-02-17T00:56:22.614Z,98494.19
2023-02-17T00:58:50.844Z,98502.78
2023-02-17T01:01:19.103Z,98505.31
2023-02-17T01:03:47.363Z,98500.06
2023-02-17T01:06:24.228Z,98501.78
2023-02-17T01:08:54.222Z,98497.34
2023-02-17T01:11:25.569Z,98506.09
2023-02-17T01:13:54.183Z,98495.59
2023-02-17T01:16:25.674Z,98496.34
2023-02-17T01:18:54.081Z,98500.75
2023-02-17T01:21:25.547Z,98495.41
2023-02-17T01:23:57.598Z,98494.44
2023-02-17T01:26:28.680Z,98486.56
2023-02-17T01:28:57.193Z,98490.06
2023-02-17T01:31:27.848Z,98482.16
2023-02-17T01:33:57.767Z,98481.13
2023-02-17T01:36:26.251Z,98477.59
2023-02-17T01:38:55.926Z,98469.72
2023-02-17T01:41:27.720Z,98469.72
2023-02-17T01:44:22.036Z,98478.50
2023-02-17T01:46:52.696Z,98477.69
2023-02-17T01:49:30.295Z,98479.38
2023-02-17T01:52:06.766Z,98487.34
2023-02-17T01:54:42.459Z,98485.56
2023-02-17T01:57:12.344Z,98475.97
2023-02-17T01:59:43.646Z,98475.34
2023-02-17T02:02:12.674Z,98472.78
2023-02-17T02:04:44.467Z,98472.13
2023-02-17T02:07:17.945Z,98473.06
2023-02-17T02:09:52.189Z,98468.81
2023-02-17T02:12:23.698Z,98452.50
2023-02-17T02:14:53.238Z,98462.84
2023-02-17T02:17:34.869Z,98451.66
2023-02-17T02:20:35.285Z,98446.59
2023-02-17T02:23:44.895Z,98438.72
2023-02-17T02:26:59.879Z,98434.41
2023-02-17T02:30:19.727Z,98437.03
2023-02-17T02:33:04.640Z,98427.25
2023-02-17T02:35:46.300Z,98422.69
2023-02-17T02:38:21.704Z,98424.16
2023-02-17T02:40:55.161Z,98412.66
2023-02-17T02:43:24.894Z,98415.09
2023-02-17T02:45:53.139Z,98405.31
2023-02-17T02:48:22.839Z,98403.44
2023-02-17T02:51:22.804Z,98396.44
2023-02-17T02:54:04.982Z,98392.00
2023-02-17T02:56:48.137Z,98397.16
2023-02-17T02:59:29.884Z,98396.25
2023-02-17T03:02:09.471Z,98398.78
2023-02-17T03:04:45.340Z,98395.19
2023-02-17T03:07:22.121Z,98385.34
2023-02-17T03:09:52.625Z,98387.88
2023-02-17T03:12:22.648Z,98383.34
2023-02-17T03:14:54.700Z,98381.50
2023-02-17T03:17:23.047Z,98386.56
2023-02-17T03:19:53.012Z,98388.22
2023-02-17T03:22:25.246Z,98382.97
2023-02-17T03:24:53.539Z,98378.38
2023-02-17T03:27:21.802Z,98373.03
2023-02-17T03:29:50.081Z,98374.72
2023-02-17T03:32:18.433Z,98369.38
2023-02-17T03:34:46.788Z,98372.84
2023-02-17T03:37:16.547Z,98376.19
2023-02-17T03:39:44.829Z,98370.13
2023-02-17T03:42:13.177Z,98372.66
2023-02-17T03:44:41.496Z,98362.97
2023-02-17T03:47:09.771Z,98356.78
2023-02-17T03:49:38.061Z,98360.34
2023-02-17T03:52:06.654Z,98367.31
2023-02-17T03:54:36.289Z,98370.75
2023-02-17T03:57:04.719Z,98361.09
2023-02-17T03:59:32.952Z,98360.03
2023-02-17T04:02:01.296Z,98357.41
2023-02-17T04:04:29.642Z,98367.94
2023-02-17T04:06:57.901Z,98365.31
2023-02-17T04:09:26.205Z,98363.53
2023-02-17T04:11:55.800Z,98368.78
2023-02-17T04:14:24.060Z,98365.31
2023-02-17T04:16:52.317Z,98367.00
2023-02-17T04:19:21.349Z,98367.84
2023-02-17T04:21:49.653Z,98363.44
2023-02-17T04:24:17.911Z,98366.91
2023-02-17T04:26:46.136Z,98369.44
2023-02-17T04:29:15.784Z,98364.09
2023-02-17T04:31:44.088Z,98375.44
2023-02-17T04:34:12.561Z,98377.25
2023-02-17T04:36:41.737Z,98382.41
2023-02-17T04:39:11.135Z,98388.56
2023-02-17T04:41:39.483Z,98388.47
2023-02-17T04:44:07.916Z,98395.53
2023-02-17T04:46:37.625Z,98395.63
2023-02-17T04:49:05.926Z,98399.09
2023-02-17T04:51:34.143Z,98388.66
2023-02-17T04:54:02.372Z,98380.06
2023-02-17T04:56:30.612Z,98374.91
2023-02-17T04:58:58.868Z,98373.19
2023-02-17T05:01:27.470Z,98369.06
2023-02-17T05:03:57.170Z,98360.34
2023-02-17T05:06:25.428Z,98359.50
2023-02-17T05:08:54.306Z,98355.16
2023-02-17T05:11:22.581Z,98357.69
2023-02-17T05:13:50.800Z,98356.78
2023-02-17T05:16:19.058Z,98354.88
2023-02-17T05:18:47.407Z,98348.72
2023-02-17T05:21:16.967Z,98358.19
2023-02-17T05:23:45.226Z,98357.97
2023-02-17T05:26:13.487Z,98351.78
2023-02-17T05:28:41.759Z,98361.28
2023-02-17T05:31:10.757Z,98354.22
2023-02-17T05:33:39.084Z,98358.53
2023-02-17T05:36:10.378Z,98360.22
2023-02-17T05:38:40.905Z,98355.81
2023-02-17T05:41:09.240Z,98351.28
2023-02-17T05:43:37.498Z,98350.47
2023-02-17T05:46:06.732Z,98353.91
2023-02-17T05:48:35.838Z,98350.28
2023-02-17T05:51:04.664Z,98339.84
2023-02-17T05:53:33.353Z,98341.47
2023-02-17T05:56:02.990Z,98343.91
2023-02-17T05:58:31.281Z,98337.78
2023-02-17T06:00:59.515Z,98342.03
2023-02-17T06:03:27.779Z,98341.06
2023-02-17T06:05:56.031Z,98349.72
2023-02-17T06:08:24.248Z,98348.75
2023-02-17T06:10:54.404Z,98347.81
2023-02-17T06:13:24.082Z,98343.31
2023-02-17T06:15:52.441Z,98329.19
2023-02-17T06:18:20.974Z,98336.16
2023-02-17T06:20:49.321Z,98329.94
2023-02-17T06:23:17.701Z,98328.03
2023-02-17T06:25:45.932Z,98319.34
2023-02-17T06:28:14.260Z,98317.53
2023-02-17T06:30:43.951Z,98327.94
2023-02-17T06:33:12.198Z,98327.03
2023-02-17T06:35:40.794Z,98333.97
2023-02-17T06:38:09.117Z,98333.97
2023-02-17T06:40:37.489Z,98341.84
2023-02-17T06:43:07.340Z,98346.16
2023-02-17T06:45:35.643Z,98338.28
2023-02-17T06:48:05.578Z,98333.88
2023-02-17T06:50:33.820Z,98328.69
2023-02-17T06:53:02.076Z,98335.63
2023-02-17T06:55:30.569Z,98333.09
2023-02-17T06:57:58.804Z,98339.13
2023-02-17T07:00:27.866Z,98339.03
2023-02-17T07:02:56.186Z,98345.03
2023-02-17T07:05:25.918Z,98343.22
2023-02-17T07:07:56.006Z,98343.97
2023-02-17T07:10:24.335Z,98342.94
2023-02-17T07:12:53.053Z,98335.88
2023-02-17T07:15:21.346Z,98332.50
2023-02-17T07:17:49.748Z,98326.03
2023-02-17T07:20:18.375Z,98334.63
2023-02-17T07:22:48.024Z,98338.03
2023-02-17T07:25:16.293Z,98337.91
2023-02-17T07:27:44.569Z,98337.72
2023-02-17T07:30:13.929Z,98341.09
2023-02-17T07:32:42.241Z,98344.34
2023-02-17T07:35:10.721Z,98337.13
2023-02-17T07:37:39.025Z,98343.84
2023-02-17T07:40:10.020Z,98338.47
2023-02-17T07:42:38.314Z,98336.50
2023-02-17T07:45:07.322Z,98338.06
2023-02-17T07:47:35.551Z,98347.44
2023-02-17T07:50:03.905Z,98347.13
2023-02-17T07:52:32.181Z,98345.25
2023-02-17T07:55:00.459Z,98337.16
2023-02-17T07:57:30.084Z,98338.72
2023-02-17T07:59:58.337Z,98335.06
2023-02-17T08:02:26.628Z,98326.00
2023-02-17T08:04:54.947Z,98329.16
2023-02-17T08:07:23.187Z,98320.09
2023-02-17T08:10:09.048Z,98313.66
2023-02-17T08:12:55.940Z,98316.09
2023-02-17T08:15:24.520Z,98319.28
2023-02-17T08:17:53.219Z,98313.78
2023-02-17T08:20:21.722Z,98309.78
2023-02-17T08:22:49.930Z,98315.56
2023-02-17T08:25:19.251Z,98323.06
2023-02-17T08:27:48.820Z,98309.56
2023-02-17T08:30:17.319Z,98322.31
2023-02-17T08:32:47.647Z,98320.06
2023-02-17T08:35:17.914Z,98319.53
2023-02-17T08:37:46.219Z,98318.97
2023-02-17T08:40:14.498Z,98313.91
2023-02-17T08:42:42.792Z,98318.75
2023-02-17T08:45:14.799Z,98321.75
2023-02-17T08:47:43.225Z,98332.94
2023-02-17T08:50:16.487Z,98326.66
2023-02-17T08:52:44.802Z,98322.88
2023-02-17T08:55:13.154Z,98322.72
2023-02-17T08:57:41.413Z,98320.72
2023-02-17T09:00:13.291Z,98310.91
2023-02-17T09:02:43.525Z,98312.78
2023-02-17T09:05:12.220Z,98315.31
2023-02-17T09:07:40.888Z,98311.03
2023-02-17T09:10:12.578Z,98306.41
2023-02-17T09:12:41.614Z,98304.09
2023-02-17T09:15:10.611Z,98317.66
2023-02-17T09:17:42.570Z,98326.91
2023-02-17T09:20:24.250Z,98320.50
2023-02-17T09:22:54.144Z,98327.78
2023-02-17T09:25:26.926Z,98327.50
2023-02-17T09:27:55.198Z,98320.34
2023-02-17T09:30:23.700Z,98312.25
2023-02-17T09:32:53.500Z,98310.25
2023-02-17T09:35:21.876Z,98303.34
2023-02-17T09:37:50.391Z,98307.34
2023-02-17T09:40:21.894Z,98300.16
2023-02-17T09:42:50.372Z,98310.19
2023-02-17T09:45:23.814Z,98309.25
2023-02-17T09:47:56.739Z,98307.09
2023-02-17T09:50:33.511Z,98309.66
2023-02-17T09:53:09.324Z,98299.63
2023-02-17T09:55:43.813Z,98288.75
2023-02-17T09:58:18.815Z,98291.31
2023-02-17T10:00:51.945Z,98289.25
2023-02-17T10:03:31.023Z,98291.66
2023-02-17T10:06:11.602Z,98287.78
2023-02-17T10:08:47.703Z,98282.88
2023-02-17T10:11:25.453Z,98278.94
2023-02-17T10:13:56.751Z,98289.13
2023-02-17T10:16:31.320Z,98288.00
2023-02-17T10:19:06.236Z,98290.78
2023-02-17T10:21:40.561Z,98278.28
2023-02-17T10:24:09.174Z,98275.66
2023-02-17T10:27:02.004Z,98269.34
2023-02-17T10:29:41.607Z,98271.13
2023-02-17T10:32:23.411Z,98275.97
2023-02-17T10:35:14.534Z,98268.59
2023-02-17T10:37:48.538Z,98275.16
2023-02-17T10:40:22.272Z,98269.72
2023-02-17T10:42:54.589Z,98267.34
2023-02-17T10:45:35.082Z,98264.59
2023-02-17T10:48:08.152Z,98270.19
2023-02-17T10:50:39.517Z,98281.81
2023-02-17T10:53:17.347Z,98265.47
2023-02-17T10:55:55.651Z,98269.81
2023-02-17T10:58:30.510Z,98264.13
2023-02-17T11:00:59.310Z,98260.97
2023-02-17T11:03:30.579Z,98260.31
2023-02-17T11:06:02.758Z,98258.66
2023-02-17T11:08:37.960Z,98256.44
2023-02-17T11:11:15.780Z,98249.44
2023-02-17T11:13:47.714Z,98251.44
2023-02-17T11:16:27.418Z,98248.25
2023-02-17T11:18:57.579Z,98245.94
2023-02-17T11:21:29.591Z,98244.22
2023-02-17T11:24:02.024Z,98237.56
2023-02-17T11:26:32.877Z,98228.34
2023-02-17T11:29:12.675Z,98232.84
2023-02-17T11:31:41.087Z,98208.81
2023-02-17T11:34:17.269Z,98208.63
2023-02-17T11:36:47.129Z,98217.84
2023-02-17T11:39:23.616Z,98214.84
2023-02-17T11:41:51.911Z,98215.00
2023-02-17T11:44:26.073Z,98213.50
2023-02-17T11:47:07.703Z,98218.50
2023-02-17T11:50:02.057Z,98215.16
2023-02-17T11:52:50.534Z,98202.13
2023-02-17T11:55:26.532Z,98205.13
2023-02-17T11:58:13.617Z,98194.47
2023-02-17T12:00:52.741Z,98190.25
2023-02-17T12:03:53.253Z,98184.09
2023-02-17T12:06:32.344Z,98184.09
2023-02-17T12:09:14.741Z,98171.88
2023-02-17T12:11:51.749Z,98172.03
2023-02-17T12:15:01.723Z,98171.91
2023-02-17T12:17:41.423Z,98165.88
2023-02-17T12:20:32.810Z,98180.91
2023-02-17T12:23:20.852Z,98182.75
2023-02-17T12:25:56.958Z,98189.28
2023-02-17T12:28:47.930Z,98175.56
2023-02-17T12:31:34.342Z,98175.88
2023-02-17T12:34:07.928Z,98177.91
2023-02-17T12:36:40.099Z,98173.84
2023-02-17T12:39:18.601Z,98177.84
2023-02-17T12:41:52.873Z,98171.84
2023-02-17T12:44:26.355Z,98186.19
2023-02-17T12:46:58.663Z,98173.84
2023-02-17T12:49:37.324Z,98171.34
2023-02-17T12:52:12.234Z,98164.31
2023-02-17T12:54:46.665Z,98167.97
2023-02-17T12:57:23.849Z,98167.31
2023-02-17T12:59:54.045Z,98166.81
2023-02-17T13:02:24.501Z,98176.69
2023-02-17T13:04:55.573Z,98169.16
2023-02-17T13:07:44.708Z,98165.66
2023-02-17T13:10:33.473Z,98157.66
2023-02-17T13:13:07.498Z,98154.97
2023-02-17T13:15:42.839Z,98152.97
2023-02-17T13:18:16.070Z,98148.47
2023-02-17T13:21:00.158Z,98153.97
2023-02-17T13:23:40.216Z,98148.47
2023-02-17T13:26:32.369Z,98141.09
2023-02-17T13:29:37.254Z,98145.63
2023-02-17T13:32:08.965Z,98148.28
2023-02-17T13:34:39.804Z,98145.44
2023-02-17T13:37:28.133Z,98150.97
2023-02-17T13:39:56.470Z,98142.59
2023-02-17T13:42:38.396Z,98143.28
2023-02-17T13:45:25.442Z,98146.13
2023-02-17T13:47:56.331Z,98137.81
2023-02-17T13:50:35.245Z,98142.44
2023-02-17T13:53:21.089Z,98158.63
2023-02-17T13:55:49.562Z,98160.81
2023-02-17T13:58:25.353Z,98155.50
2023-02-17T14:00:55.484Z,98152.47
2023-02-17T14:03:26.380Z,98168.66
2023-02-17T14:05:56.619Z,98163.81
2023-02-17T14:08:36.259Z,98173.50
2023-02-17T14:11:10.854Z,98174.00
2023-02-17T14:13:41.951Z,98183.69
2023-02-17T14:16:31.552Z,98181.66
2023-02-17T14:19:06.223Z,98183.50
2023-02-17T14:21:35.501Z,98179.47
2023-02-17T14:24:04.113Z,98178.13
2023-02-17T14:26:38.186Z,98174.44
2023-02-17T14:29:10.970Z,98186.09
2023-02-17T14:31:43.068Z,98182.44
2023-02-17T14:34:26.442Z,98179.22
2023-02-17T14:36:54.756Z,98173.72
2023-02-17T14:39:24.218Z,98171.03
2023-02-17T14:41:52.482Z,98170.22
2023-02-17T14:44:20.671Z,98174.72
2023-02-17T14:46:50.526Z,98175.88
2023-02-17T14:49:18.863Z,98180.53
2023-02-17T14:51:47.111Z,98186.72
2023-02-17T14:54:18.372Z,98182.56
2023-02-17T14:56:53.052Z,98171.66
2023-02-17T14:59:21.373Z,98172.50
2023-02-17T15:01:51.081Z,98163.50
2023-02-17T15:04:19.364Z,98157.47
2023-02-17T15:06:50.651Z,98153.16
2023-02-17T15:09:27.568Z,98140.66
2023-02-17T15:11:57.313Z,98133.47
2023-02-17T15:14:26.029Z,98130.13
2023-02-17T15:16:55.815Z,98131.78
2023-02-17T15:19:24.722Z,98135.63
2023-02-17T15:21:53.687Z,98146.31
2023-02-17T15:24:29.435Z,98142.28
2023-02-17T15:26:58.919Z,98146.94
2023-02-17T15:29:28.398Z,98148.09
2023-02-17T15:32:01.693Z,98151.94
2023-02-17T15:34:34.179Z,98135.22
2023-02-17T15:37:02.989Z,98142.69
2023-02-17T15:39:31.287Z,98146.34
2023-02-17T15:42:05.269Z,98129.69
2023-02-17T15:44:41.834Z,98134.34
2023-02-17T15:47:16.953Z,98124.66
2023-02-17T15:49:45.301Z,98131.66
2023-02-17T15:52:15.291Z,98115.97
2023-02-17T15:54:44.706Z,98113.47
2023-02-17T15:57:23.992Z,98116.47
2023-02-17T15:59:55.060Z,98126.28
2023-02-17T16:02:26.709Z,98120.28
2023-02-17T16:04:55.304Z,98131.13
2023-02-17T16:07:23.589Z,98124.44
2023-02-17T16:09:51.905Z,98129.09
2023-02-17T16:12:26.755Z,98133.91
2023-02-17T16:14:56.101Z,98135.22
2023-02-17T16:17:27.012Z,98123.19
2023-02-17T16:19:55.413Z,98135.84
2023-02-17T16:22:23.804Z,98133.66
2023-02-17T16:24:52.084Z,98130.47
2023-02-17T16:27:20.469Z,98133.59
2023-02-17T16:29:48.852Z,98136.56
2023-02-17T16:32:17.228Z,98144.06
2023-02-17T16:34:47.133Z,98138.19
2023-02-17T16:37:18.745Z,98135.84
2023-02-17T16:39:47.467Z,98142.66
2023-02-17T16:42:16.186Z,98146.78
2023-02-17T16:44:44.617Z,98161.41
2023-02-17T16:47:22.666Z,98165.69
2023-02-17T16:49:52.730Z,98167.81
2023-02-17T16:52:26.128Z,98164.63
2023-02-17T16:54:55.242Z,98171.06
2023-02-17T16:57:24.874Z,98162.72
2023-02-17T16:59:53.327Z,98173.50
2023-02-17T17:02:22.221Z,98172.13
2023-02-17T17:04:51.972Z,98175.25
2023-02-17T17:07:20.293Z,98178.25
2023-02-17T17:10:06.855Z,98185.00
2023-02-17T17:12:37.097Z,98183.16
2023-02-17T17:15:06.048Z,98177.16
2023-02-17T17:17:41.529Z,98176.50
2023-02-17T17:20:16.677Z,98174.78
2023-02-17T17:22:46.712Z,98179.31
2023-02-17T17:25:15.810Z,98166.94
2023-02-17T17:27:46.019Z,98167.09
2023-02-17T17:30:19.610Z,98163.78
2023-02-17T17:32:48.513Z,98157.47
2023-02-17T17:35:18.961Z,98157.47
2023-02-17T17:37:48.220Z,98153.72
2023-02-17T17:40:20.412Z,98158.38
2023-02-17T17:42:48.821Z,98169.72
2023-02-17T17:45:17.709Z,98159.06
2023-02-17T17:47:46.444Z,98156.00
2023-02-17T17:50:23.528Z,98175.63
2023-02-17T17:52:52.373Z,98180.41
2023-02-17T17:55:20.868Z,98171.88
2023-02-17T17:57:49.240Z,98170.38
2023-02-17T18:00:19.622Z,98179.78
2023-02-17T18:02:47.986Z,98177.59
2023-02-17T18:05:18.190Z,98175.06
2023-02-17T18:07:48.949Z,98171.03
2023-02-17T18:10:17.842Z,98176.66
2023-02-17T18:12:47.895Z,98170.78
2023-02-17T18:15:17.469Z,98173.59
2023-02-17T18:17:46.931Z,98183.53
2023-02-17T18:20:15.653Z,98175.72
2023-02-17T18:22:45.617Z,98170.84
2023-02-17T18:25:14.052Z,98167.34
2023-02-17T18:27:45.301Z,98164.16
2023-02-17T18:30:16.677Z,98170.91
2023-02-17T18:32:45.230Z,98168.38
2023-02-17T18:35:14.681Z,98168.97
2023-02-17T18:37:45.970Z,98174.59
2023-02-17T18:40:17.716Z,98183.38
2023-02-17T18:42:46.639Z,98187.03
2023-02-17T18:45:16.944Z,98188.19
2023-02-17T18:47:46.298Z,98184.94
2023-02-17T18:50:16.555Z,98190.41
2023-02-17T18:52:46.260Z,98188.03
2023-02-17T18:55:15.351Z,98208.34
2023-02-17T18:57:45.386Z,98209.31
2023-02-17T19:00:16.700Z,98202.63
2023-02-17T19:02:45.417Z,98204.13
2023-02-17T19:05:17.493Z,98208.50
2023-02-17T19:07:47.294Z,98191.97
2023-02-17T19:10:16.670Z,98193.69
2023-02-17T19:12:45.076Z,98195.34
2023-02-17T19:15:16.575Z,98198.88
2023-02-17T19:17:45.628Z,98202.78
2023-02-17T19:20:16.996Z,98199.00
2023-02-17T19:22:46.822Z,98202.34
2023-02-17T19:25:15.129Z,98204.03
2023-02-17T19:27:43.493Z,98205.84
2023-02-17T19:30:13.437Z,98202.91
2023-02-17T19:32:42.000Z,98201.75
2023-02-17T19:35:11.690Z,98197.00
2023-02-17T19:37:40.173Z,98200.66
2023-02-17T19:40:11.113Z,98209.44
2023-02-17T19:42:40.325Z,98210.00
2023-02-17T19:45:09.165Z,98210.84
2023-02-17T19:47:37.492Z,98220.34
2023-02-17T19:50:07.212Z,98203.03
2023-02-17T19:52:35.496Z,98208.47
2023-02-17T19:55:03.915Z,98196.69
2023-02-17T19:57:33.558Z,98193.88
2023-02-17T20:00:01.852Z,98192.78
2023-02-17T20:02:30.200Z,98183.66
2023-02-17T20:04:59.303Z,98199.31
2023-02-17T20:07:27.707Z,98181.69
2023-02-17T20:09:56.006Z,98187.69
2023-02-17T20:12:24.271Z,98187.53
2023-02-17T20:14:55.080Z,98191.75
2023-02-17T20:17:23.302Z,98196.78
2023-02-17T20:19:51.770Z,98194.25
2023-02-17T20:22:20.794Z,98196.78
2023-02-17T20:24:49.103Z,98199.44
2023-02-17T20:27:17.647Z,98200.94
2023-02-17T20:29:46.202Z,98196.31
2023-02-17T20:32:15.927Z,98201.50
2023-02-17T20:34:44.522Z,98202.63
2023-02-17T20:37:13.096Z,98207.78
2023-02-17T20:39:42.240Z,98207.50
2023-02-17T20:42:10.981Z,98203.31
2023-02-17T20:44:39.310Z,98195.03
2023-02-17T20:47:07.687Z,98199.38
2023-02-17T20:49:37.393Z,98204.53
2023-02-17T20:52:06.801Z,98206.75
2023-02-17T20:54:35.186Z,98199.22
2023-02-17T20:57:04.246Z,98226.22
2023-02-17T20:59:32.615Z,98225.78
2023-02-17T21:02:00.893Z,98216.66
2023-02-17T21:04:29.403Z,98214.53
2023-02-17T21:07:01.293Z,98225.88
2023-02-17T21:09:30.483Z,98230.06
2023-02-17T21:11:58.691Z,98227.56
2023-02-17T21:14:26.983Z,98233.25
2023-02-17T21:16:55.376Z,98228.63
2023-02-17T21:19:23.656Z,98237.97
2023-02-17T21:21:52.050Z,98231.53
2023-02-17T21:24:21.663Z,98239.69
2023-02-17T21:26:49.977Z,98245.44
2023-02-17T21:29:19.380Z,98250.31
2023-02-17T21:31:47.778Z,98251.84
2023-02-17T21:34:16.065Z,98241.91
2023-02-17T21:36:44.307Z,98242.19
2023-02-17T21:39:12.743Z,98233.91
2023-02-17T21:41:44.405Z,98220.28
2023-02-17T21:44:31.417Z,98208.50
2023-02-17T21:46:59.699Z,98199.66
2023-02-17T21:49:27.961Z,98217.03
2023-02-17T21:51:56.250Z,98224.72
2023-02-17T21:54:24.545Z,98227.38
2023-02-17T21:56:54.219Z,98224.19
2023-02-17T21:59:22.522Z,98243.66
2023-02-17T22:01:51.914Z,98240.84
2023-02-17T22:04:20.463Z,98241.28
2023-02-17T22:06:48.916Z,98247.75
2023-02-17T22:09:18.158Z,98249.59
2023-02-17T22:11:47.698Z,98254.91
2023-02-17T22:14:19.779Z,98254.91
2023-02-17T22:16:49.755Z,98267.22
2023-02-17T22:19:21.096Z,98265.56
2023-02-17T22:21:50.920Z,98274.66
2023-02-17T22:24:21.394Z,98283.34
2023-02-17T22:26:50.273Z,98287.16
2023-02-17T22:29:20.023Z,98274.00
2023-02-17T22:31:50.424Z,98279.16
2023-02-17T22:34:19.129Z,98295.81
2023-02-17T22:36:47.408Z,98288.81
2023-02-17T22:39:15.823Z,98292.34
2023-02-17T22:41:44.112Z,98293.44
2023-02-17T22:44:12.439Z,98296.09
2023-02-17T22:46:42.129Z,98295.28
2023-02-17T22:49:10.461Z,98292.63
2023-02-17T22:51:40.829Z,98297.09
2023-02-17T22:54:09.830Z,98299.63
2023-02-17T22:56:38.922Z,98301.28
2023-02-17T22:59:07.754Z,98301.44
2023-02-17T23:01:37.691Z,98307.59
2023-02-17T23:04:07.849Z,98312.00
2023-02-17T23:06:38.835Z,98307.91
2023-02-17T23:09:09.677Z,98315.88
2023-02-17T23:11:54.017Z,98314.06
2023-02-17T23:14:26.066Z,98318.41
2023-02-17T23:16:57.233Z,98322.72
2023-02-17T23:19:27.124Z,98321.06
2023-02-17T23:21:58.880Z,98313.94
2023-02-17T23:24:28.670Z,98319.41
2023-02-17T23:26:59.934Z,98315.59
2023-02-17T23:29:30.650Z,98313.78
2023-02-17T23:31:59.717Z,98318.81
2023-02-17T23:34:29.997Z,98313.63
2023-02-17T23:36:58.657Z,98314.59
2023-02-17T23:39:27.168Z,98319.94
2023-02-17T23:41:55.498Z,98324.59
2023-02-17T23:44:23.771Z,98325.53
2023-02-17T23:46:52.035Z,98327.38
2023-02-17T23:49:20.358Z,98325.03
2023-02-17T23:51:50.056Z,98313.53
2023-02-17T23:54:18.390Z,98311.84
2023-02-17T23:56:46.746Z,98312.66
2023-02-17T23:59:15.209Z,98312.28
